📊 Raw Sensor Data

Showing records 41001 to 41025 of 84,974 total

ID Distance (ft) Battery V Battery A Int Temp (°F) Int Humid (%) Ext Temp (°F) Solar V RSSI SNR Time Stamp
43986 14.9 3.86 -5 55 44 56 0.00 -70 8 06/20/2025 12:45 AM
43985 14.9 3.86 -5 55 44 56 0.00 -69 8 06/20/2025 12:30 AM
43984 14.9 3.86 -5 55 44 57 0.10 -71 8 06/20/2025 12:15 AM
43983 14.9 3.95 -5 55 44 57 0.10 -70 8 06/20/2025 12:00 AM
43982 14.9 3.86 -5 55 44 57 0.00 -69 8 06/19/2025 11:45 PM
43981 14.9 3.86 -5 56 45 57 0.00 -70 8 06/19/2025 11:30 PM
43980 14.9 3.95 -5 56 45 57 0.00 -70 8 06/19/2025 11:15 PM
43979 14.9 3.86 -5 56 45 57 0.00 -71 8 06/19/2025 11:00 PM
43978 14.9 3.86 -5 57 46 58 0.00 -69 8 06/19/2025 10:45 PM
43977 14.9 3.86 -5 57 46 58 0.00 -69 8 06/19/2025 10:30 PM
43976 14.9 3.86 -5 58 47 58 0.00 -70 8 06/19/2025 10:15 PM
43975 14.9 3.86 -5 59 47 59 0.00 -70 8 06/19/2025 10:00 PM
43974 14.9 3.86 -5 60 48 61 0.00 -71 8 06/19/2025 09:45 PM
43973 14.9 3.87 -5 61 48 61 0.00 -69 8 06/19/2025 09:30 PM
43972 14.9 3.96 -5 62 49 62 0.00 -70 8 06/19/2025 09:15 PM
43971 14.9 3.96 -5 62 51 62 0.00 -72 7 06/19/2025 09:00 PM
43970 14.9 3.96 -5 64 52 63 0.70 -71 7 06/19/2025 08:45 PM
43969 14.9 3.85 -10 67 53 64 4.20 -72 8 06/19/2025 08:30 PM
43968 14.9 3.88 0 71 52 67 4.50 -70 8 06/19/2025 08:15 PM
43967 14.9 3.99 0 74 52 69 4.50 -70 8 06/19/2025 08:00 PM
43966 15.0 4.01 10 78 52 72 4.50 -71 8 06/19/2025 07:30 PM
43965 15.0 3.96 -9 81 51 73 4.50 -71 8 06/19/2025 07:15 PM
43964 15.0 4.06 9 83 50 75 4.50 -70 7 06/19/2025 07:00 PM
43963 15.0 3.95 0 85 50 76 5.10 -69 8 06/19/2025 06:45 PM
43962 15.1 3.98 0 86 50 78 5.10 -72 8 06/19/2025 06:30 PM